Nashville, TN (37203)

1:51 PM CDT on July 26, 2016 (GMT -0500)
APRSWXNET | | Change Station

Elev 551 ft 36.14 °N, 86.80 °W | Updated 16 minutes ago

Mostly Cloudy
Mostly Cloudy
92 °F
Feels Like 101 °F
N
4
Wind Variable Wind from WSW
Gusts 9.0 mph

Today
High -- | Low -- °F
--% Chance of Precip.
Yesterday
High -- | Low -- °F
Precip. -- in
Pressure 29.99 in
Visibility 10.0 miles
Clouds Few 6000 ft
Scattered Clouds 9000 ft
Mostly Cloudy 20000 ft
Mostly Cloudy 25000 ft
Heat Index 101 °F
Dew Point 73 °F
Humidity 54%
Rainfall in
Snow Depth Not available.
5:49 AM 7:56 PM
Waning Gibbous, 52% visible
METAR KBNA 261753Z 30005KT 10SM FEW060TCU SCT090 BKN200 BKN250 35/20 A3002 RMK AO2 SLP156 TCU ALQDS T03500200 10361 20250 58009
Pressure 29.99 in
Visibility 10.0 miles
Clouds Few 6000 ft
Scattered Clouds 9000 ft
Mostly Cloudy 20000 ft
Mostly Cloudy 25000 ft
Heat Index 101 °F
Dew Point 73 °F
Humidity 54%
Rainfall in
Snow Depth Not available.
5:49 AM 7:56 PM
Waning Gibbous, 52% visible
METAR KBNA 261753Z 30005KT 10SM FEW060TCU SCT090 BKN200 BKN250 35/20 A3002 RMK AO2 SLP156 TCU ALQDS T03500200 10361 20250 58009

10-Day Weather Forecast

Almanac

Astronomy

Jul. 26, 2016 Rise Set
Actual Time
Civil Twilight
Nautical Twilight
Astronomical Twilight
Moon
Length of Visible Light
Length of Day
Tomorrow will be .
, % of the Moon is Illuminated

Today's Extremes

State Highs State Lows

Community

WunderPhotos

Upload Photos

1,927,653 photos uploaded!

WunderBlog® & News

Nearby

Air Quality

  Air Quality AQ Index Pollutant
Not available.

Snow Depth

Station Depth Elevation

Earthquake Activity

City Distance Mag. Time & Date
Minimum magnitude displayed is 2.5.

Coastal Water Temperatures

Place Temperature

Stations

Nearby Weather Stations

Station Location Temp. Windchill Dew Point Humidity Wind Precip. Elev Updated Type
                   

Watches & Warnings

There are currently no watches in effect.